createdAt,value
2018-06-27T00:01:12.315Z,99298.05
2018-06-27T00:03:40.449Z,99294.70
2018-06-27T00:06:08.741Z,99294.19
2018-06-27T00:08:36.835Z,99289.77
2018-06-27T00:11:04.920Z,99293.35
2018-06-27T00:13:34.280Z,99284.37
2018-06-27T00:16:02.560Z,99292.16
2018-06-27T00:18:30.683Z,99295.61
2018-06-27T00:20:58.916Z,99291.37
2018-06-27T00:23:27.158Z,99294.77
2018-06-27T00:25:55.226Z,99291.13
2018-06-27T00:28:23.565Z,99287.10
2018-06-27T00:30:51.696Z,99290.50
2018-06-27T00:33:19.824Z,99284.27
2018-06-27T00:35:47.904Z,99287.66
2018-06-27T00:38:17.608Z,99280.38
2018-06-27T00:40:46.018Z,99280.99
2018-06-27T00:43:14.880Z,99281.27
2018-06-27T00:45:42.990Z,99287.81
2018-06-27T00:48:11.304Z,99291.56
2018-06-27T00:50:39.928Z,99289.06
2018-06-27T00:53:08.052Z,99281.98
2018-06-27T00:55:36.895Z,99286.83
2018-06-27T00:58:05.323Z,99288.04
2018-06-27T01:00:33.419Z,99286.92
2018-06-27T01:03:01.497Z,99287.63
2018-06-27T01:05:29.616Z,99282.75
2018-06-27T01:07:57.739Z,99283.09
2018-06-27T01:10:26.315Z,99281.46
2018-06-27T01:12:54.367Z,99279.70
2018-06-27T01:15:22.545Z,99278.88
2018-06-27T01:17:55.210Z,99282.97
2018-06-27T01:20:24.801Z,99281.36
2018-06-27T01:22:52.964Z,99278.48
2018-06-27T01:25:21.455Z,99278.38
2018-06-27T01:27:56.420Z,99280.96
2018-06-27T01:30:24.551Z,99279.64
2018-06-27T01:32:52.640Z,99280.83
2018-06-27T01:35:20.739Z,99280.85
2018-06-27T01:37:49.642Z,99277.97
2018-06-27T01:40:18.085Z,99286.34
2018-06-27T01:42:46.172Z,99283.31
2018-06-27T01:45:14.344Z,99282.23
2018-06-27T01:47:42.492Z,99279.95
2018-06-27T01:50:11.352Z,99282.25
2018-06-27T01:52:39.632Z,99284.46
2018-06-27T01:55:07.750Z,99284.59
2018-06-27T01:57:36.027Z,99273.42
2018-06-27T02:00:04.811Z,99279.95
2018-06-27T02:02:32.888Z,99282.84
2018-06-27T02:05:00.960Z,99285.95
2018-06-27T02:07:29.276Z,99285.00
2018-06-27T02:09:57.363Z,99282.88
2018-06-27T02:12:25.688Z,99282.66
2018-06-27T02:14:53.776Z,99286.16
2018-06-27T02:17:21.983Z,99279.80
2018-06-27T02:19:50.067Z,99278.13
2018-06-27T02:22:18.140Z,99273.83
2018-06-27T02:24:46.207Z,99269.50
2018-06-27T02:27:14.283Z,99272.00
2018-06-27T02:29:42.396Z,99277.55
2018-06-27T02:32:10.460Z,99274.92
2018-06-27T02:34:38.540Z,99281.13
2018-06-27T02:37:06.672Z,99279.14
2018-06-27T02:39:34.795Z,99282.84
2018-06-27T02:42:02.891Z,99283.69
2018-06-27T02:44:32.040Z,99288.23
2018-06-27T02:47:00.285Z,99285.60
2018-06-27T02:49:28.499Z,99301.05
2018-06-27T02:51:56.906Z,99307.30
2018-06-27T02:54:25.212Z,99305.60
2018-06-27T02:56:53.304Z,99302.61
2018-06-27T02:59:21.430Z,99303.69
2018-06-27T03:01:49.747Z,99304.19
2018-06-27T03:04:17.841Z,99312.45
2018-06-27T03:06:45.929Z,99316.16
2018-06-27T03:09:14.113Z,99319.64
2018-06-27T03:11:42.248Z,99320.61
2018-06-27T03:14:10.311Z,99318.44
2018-06-27T03:16:38.393Z,99311.98
2018-06-27T03:19:06.479Z,99317.59
2018-06-27T03:21:34.591Z,99320.95
2018-06-27T03:24:02.791Z,99325.88
2018-06-27T03:26:30.865Z,99325.97
2018-06-27T03:28:59.059Z,99323.12
2018-06-27T03:31:27.261Z,99325.16
2018-06-27T03:33:55.916Z,99320.34
2018-06-27T03:36:24.153Z,99317.59
2018-06-27T03:38:53.161Z,99314.95
2018-06-27T03:41:21.304Z,99318.44
2018-06-27T03:43:49.384Z,99318.91
2018-06-27T03:46:17.456Z,99322.65
2018-06-27T03:48:45.570Z,99309.45
2018-06-27T03:51:14.149Z,99315.78
2018-06-27T03:53:46.464Z,99319.37
2018-06-27T03:56:14.552Z,99319.02
2018-06-27T03:58:42.685Z,99323.34
2018-06-27T04:01:11.287Z,99333.06
2018-06-27T04:03:42.156Z,99330.77
2018-06-27T04:06:11.132Z,99334.38
2018-06-27T04:08:39.223Z,99335.73
2018-06-27T04:11:07.357Z,99341.25
2018-06-27T04:13:35.580Z,99346.53
2018-06-27T04:16:03.664Z,99350.74
2018-06-27T04:18:31.775Z,99350.02
2018-06-27T04:20:59.894Z,99347.06
2018-06-27T04:23:28.092Z,99352.67
2018-06-27T04:25:56.222Z,99354.28
2018-06-27T04:28:24.339Z,99351.54
2018-06-27T04:30:52.487Z,99347.41
2018-06-27T04:33:20.648Z,99348.95
2018-06-27T04:35:48.773Z,99347.43
2018-06-27T04:38:17.343Z,99343.98
2018-06-27T04:40:45.467Z,99345.75
2018-06-27T04:43:13.652Z,99343.34
2018-06-27T04:45:41.697Z,99345.38
2018-06-27T04:48:10.503Z,99339.47
2018-06-27T04:50:38.637Z,99340.53
2018-06-27T04:53:06.731Z,99342.59
2018-06-27T04:55:34.869Z,99345.61
2018-06-27T04:58:03.049Z,99343.95
2018-06-27T05:00:31.247Z,99343.45
2018-06-27T05:02:59.427Z,99345.91
2018-06-27T05:05:27.616Z,99343.08
2018-06-27T05:07:55.737Z,99351.73
2018-06-27T05:10:23.850Z,99362.78
2018-06-27T05:12:51.915Z,99366.13
2018-06-27T05:15:20.001Z,99359.98
2018-06-27T05:17:48.079Z,99356.02
2018-06-27T05:20:16.749Z,99357.05
2018-06-27T05:22:44.862Z,99359.75
2018-06-27T05:25:12.949Z,99363.03
2018-06-27T05:27:42.511Z,99366.73
2018-06-27T05:30:10.604Z,99361.87
2018-06-27T05:32:38.684Z,99362.44
2018-06-27T05:35:06.952Z,99363.81
2018-06-27T05:37:35.065Z,99364.00
2018-06-27T05:40:03.304Z,99358.55
2018-06-27T05:42:31.398Z,99361.67
2018-06-27T05:44:59.496Z,99355.57
2018-06-27T05:47:27.826Z,99358.12
2018-06-27T05:49:55.892Z,99351.38
2018-06-27T05:52:23.968Z,99352.00
2018-06-27T05:54:57.349Z,99347.66
2018-06-27T05:57:25.512Z,99343.68
2018-06-27T05:59:53.564Z,99347.38
2018-06-27T06:02:21.767Z,99348.70
2018-06-27T06:04:49.841Z,99352.81
2018-06-27T06:07:17.922Z,99351.65
2018-06-27T06:09:46.000Z,99355.63
2018-06-27T06:12:14.218Z,99360.39
2018-06-27T06:14:42.291Z,99355.58
2018-06-27T06:17:10.396Z,99350.92
2018-06-27T06:19:38.558Z,99349.94
2018-06-27T06:22:06.608Z,99346.25
2018-06-27T06:24:40.440Z,99342.91
2018-06-27T06:27:09.180Z,99340.48
2018-06-27T06:29:37.304Z,99347.03
2018-06-27T06:32:05.569Z,99348.88
2018-06-27T06:34:33.601Z,99350.00
2018-06-27T06:37:01.717Z,99360.97
2018-06-27T06:39:30.663Z,99359.34
2018-06-27T06:41:58.754Z,99356.45
2018-06-27T06:44:27.030Z,99352.25
2018-06-27T06:46:55.207Z,99353.59
2018-06-27T06:49:23.256Z,99351.57
2018-06-27T06:51:51.457Z,99357.05
2018-06-27T06:54:19.547Z,99353.22
2018-06-27T06:56:47.619Z,99351.95
2018-06-27T06:59:15.694Z,99352.53
2018-06-27T07:01:44.117Z,99356.17
2018-06-27T07:04:12.226Z,99364.69
2018-06-27T07:06:40.452Z,99360.29
2018-06-27T07:09:10.432Z,99360.11
2018-06-27T07:11:39.209Z,99354.55
2018-06-27T07:14:07.526Z,99362.77
2018-06-27T07:16:35.988Z,99363.13
2018-06-27T07:19:04.312Z,99361.98
2018-06-27T07:21:32.503Z,99358.53
2018-06-27T07:24:00.605Z,99357.98
2018-06-27T07:26:28.682Z,99354.76
2018-06-27T07:28:56.768Z,99358.06
2018-06-27T07:31:24.837Z,99363.91
2018-06-27T07:33:52.912Z,99359.84
2018-06-27T07:36:21.057Z,99366.69
2018-06-27T07:38:49.117Z,99361.03
2018-06-27T07:41:17.287Z,99352.90
2018-06-27T07:43:45.560Z,99347.22
2018-06-27T07:46:13.640Z,99345.35
2018-06-27T07:48:41.747Z,99347.08
2018-06-27T07:51:09.872Z,99350.97
2018-06-27T07:53:37.974Z,99349.05
2018-06-27T07:56:06.178Z,99348.97
2018-06-27T07:58:34.240Z,99343.02
2018-06-27T08:01:03.194Z,99342.92
2018-06-27T08:03:31.260Z,99344.56
2018-06-27T08:05:59.428Z,99346.27
2018-06-27T08:08:27.435Z,99343.95
2018-06-27T08:10:55.526Z,99344.92
2018-06-27T08:13:23.612Z,99344.56
2018-06-27T08:15:51.720Z,99340.02
2018-06-27T08:18:19.823Z,99339.25
2018-06-27T08:20:48.046Z,99334.78
2018-06-27T08:23:16.124Z,99332.00
2018-06-27T08:25:49.624Z,99331.95
2018-06-27T08:28:17.777Z,99330.23
2018-06-27T08:30:46.501Z,99324.13
2018-06-27T08:33:14.736Z,99322.73
2018-06-27T08:35:42.836Z,99318.83
2018-06-27T08:38:12.376Z,99319.39
2018-06-27T08:40:40.443Z,99307.08
2018-06-27T08:43:08.518Z,99306.34
2018-06-27T08:45:36.580Z,99307.16
2018-06-27T08:48:04.691Z,99311.59
2018-06-27T08:50:32.862Z,99304.70
2018-06-27T08:53:00.959Z,99304.74
2018-06-27T08:55:29.028Z,99306.12
2018-06-27T08:57:57.092Z,99304.81
2018-06-27T09:00:25.335Z,99300.23
2018-06-27T09:02:53.518Z,99295.91
2018-06-27T09:05:21.600Z,99296.30
2018-06-27T09:07:49.909Z,99293.08
2018-06-27T09:10:18.048Z,99284.62
2018-06-27T09:12:46.189Z,99284.42
2018-06-27T09:15:14.353Z,99281.39
2018-06-27T09:17:42.435Z,99281.78
2018-06-27T09:20:10.509Z,99281.28
2018-06-27T09:22:38.582Z,99279.02
2018-06-27T09:25:06.688Z,99273.37
2018-06-27T09:27:35.258Z,99270.09
2018-06-27T09:30:03.353Z,99275.50
2018-06-27T09:32:32.456Z,99282.70
2018-06-27T09:35:00.616Z,99278.23
2018-06-27T09:37:28.940Z,99272.03
2018-06-27T09:39:57.116Z,99267.98
2018-06-27T09:42:25.192Z,99272.20
2018-06-27T09:44:53.265Z,99273.84
2018-06-27T09:47:21.335Z,99267.41
2018-06-27T09:49:49.415Z,99269.14
2018-06-27T09:52:17.586Z,99261.70
2018-06-27T09:54:45.680Z,99258.58
2018-06-27T09:57:14.067Z,99259.90
2018-06-27T09:59:43.148Z,99254.19
2018-06-27T10:02:12.020Z,99253.52
2018-06-27T10:04:40.324Z,99249.81
2018-06-27T10:07:08.448Z,99235.47
2018-06-27T10:09:36.515Z,99236.66
2018-06-27T10:12:04.602Z,99230.67
2018-06-27T10:14:32.669Z,99228.75
2018-06-27T10:17:00.896Z,99228.42
2018-06-27T10:19:28.908Z,99229.33
2018-06-27T10:21:56.976Z,99237.21
2018-06-27T10:24:25.052Z,99236.61
2018-06-27T10:26:53.181Z,99233.28
2018-06-27T10:29:21.356Z,99226.95
2018-06-27T10:31:49.704Z,99221.09
2018-06-27T10:34:17.937Z,99229.95
2018-06-27T10:36:46.060Z,99226.63
2018-06-27T10:39:14.165Z,99218.75
2018-06-27T10:41:42.221Z,99222.42
2018-06-27T10:44:10.352Z,99219.45
2018-06-27T10:46:38.425Z,99214.53
2018-06-27T10:49:07.648Z,99207.52
2018-06-27T10:51:35.745Z,99209.84
2018-06-27T10:54:03.911Z,99204.06
2018-06-27T10:56:31.991Z,99203.19
2018-06-27T10:59:00.079Z,99203.69
2018-06-27T11:01:28.148Z,99202.55
2018-06-27T11:03:56.215Z,99193.02
2018-06-27T11:06:24.436Z,99196.24
2018-06-27T11:08:53.176Z,99195.51
2018-06-27T11:11:21.301Z,99199.63
2018-06-27T11:13:49.392Z,99193.72
2018-06-27T11:16:17.460Z,99198.55
2018-06-27T11:18:45.660Z,99196.19
2018-06-27T11:21:13.738Z,99191.33
2018-06-27T11:23:41.949Z,99190.23
2018-06-27T11:26:10.072Z,99185.37
2018-06-27T11:28:38.632Z,99179.64
2018-06-27T11:31:06.720Z,99178.99
2018-06-27T11:33:34.784Z,99159.93
2018-06-27T11:36:02.983Z,99184.74
2018-06-27T11:38:31.510Z,99185.15
2018-06-27T11:40:59.526Z,99178.63
2018-06-27T11:43:27.663Z,99173.51
2018-06-27T11:45:55.749Z,99172.80
2018-06-27T11:48:23.843Z,99174.06
2018-06-27T11:50:51.935Z,99172.48
2018-06-27T11:53:20.070Z,99163.76
2018-06-27T11:55:48.089Z,99151.84
2018-06-27T11:58:16.167Z,99157.48
2018-06-27T12:00:44.423Z,99158.78
2018-06-27T12:03:12.500Z,99150.84
2018-06-27T12:05:40.580Z,99156.59
2018-06-27T12:08:08.753Z,99153.95
2018-06-27T12:10:36.849Z,99143.97
2018-06-27T12:13:04.913Z,99145.20
2018-06-27T12:15:32.980Z,99144.94
2018-06-27T12:18:01.076Z,99146.66
2018-06-27T12:20:29.128Z,99139.87
2018-06-27T12:22:57.272Z,99140.30
2018-06-27T12:25:25.428Z,99132.59
2018-06-27T12:27:53.509Z,99134.28
2018-06-27T12:30:22.789Z,99143.58
2018-06-27T12:32:51.176Z,99136.27
2018-06-27T12:35:23.124Z,99126.96
2018-06-27T12:37:52.017Z,99130.06
2018-06-27T12:40:20.086Z,99129.02
2018-06-27T12:42:48.219Z,99134.16
2018-06-27T12:45:16.288Z,99135.93
2018-06-27T12:47:44.395Z,99129.28
2018-06-27T12:50:12.590Z,99135.44
2018-06-27T12:52:41.340Z,99128.66
2018-06-27T12:55:11.553Z,99128.50
2018-06-27T12:57:39.677Z,99111.73
2018-06-27T13:00:08.946Z,99112.57
2018-06-27T13:02:37.019Z,99124.32
2018-06-27T13:05:06.017Z,99118.52
2018-06-27T13:07:34.156Z,99108.33
2018-06-27T13:10:02.264Z,99102.80
2018-06-27T13:12:30.445Z,99103.63
2018-06-27T13:14:59.508Z,99112.77
2018-06-27T13:17:27.604Z,99102.20
2018-06-27T13:19:55.783Z,99107.38
2018-06-27T13:22:23.959Z,99103.75
2018-06-27T13:24:52.144Z,99093.29
2018-06-27T13:27:20.252Z,99088.08
2018-06-27T13:29:48.361Z,99083.36
2018-06-27T13:32:16.882Z,99085.09
2018-06-27T13:34:45.067Z,99088.94
2018-06-27T13:37:13.164Z,99089.98
2018-06-27T13:39:41.294Z,99079.70
2018-06-27T13:42:09.376Z,99077.97
2018-06-27T13:44:37.520Z,99077.35
2018-06-27T13:47:05.605Z,99078.48
2018-06-27T13:49:33.728Z,99067.50
2018-06-27T13:52:01.799Z,99079.41
2018-06-27T13:54:30.112Z,99075.67
2018-06-27T13:56:58.357Z,99074.30
2018-06-27T13:59:26.930Z,99069.98
2018-06-27T14:01:54.945Z,99077.83
2018-06-27T14:04:23.140Z,99064.32
2018-06-27T14:06:51.223Z,99078.17
2018-06-27T14:09:19.916Z,99063.08
2018-06-27T14:11:48.006Z,99074.30
2018-06-27T14:14:16.068Z,99067.33
2018-06-27T14:16:44.233Z,99062.31
2018-06-27T14:19:12.300Z,99073.53
2018-06-27T14:21:40.380Z,99073.86
2018-06-27T14:24:08.479Z,99077.28
2018-06-27T14:26:36.548Z,99071.95
2018-06-27T14:29:04.631Z,99077.61
2018-06-27T14:31:32.774Z,99072.27
2018-06-27T14:34:00.837Z,99073.59
2018-06-27T14:36:28.916Z,99080.15
2018-06-27T14:38:57.242Z,99072.48
2018-06-27T14:41:25.633Z,99064.94
2018-06-27T14:43:53.792Z,99059.08
2018-06-27T14:46:21.874Z,99055.36
2018-06-27T14:48:49.915Z,99058.21
2018-06-27T14:51:18.009Z,99046.30
2018-06-27T14:53:46.156Z,99054.53
2018-06-27T14:56:14.296Z,99052.86
2018-06-27T14:58:42.706Z,99046.13
2018-06-27T15:01:11.363Z,99050.27
2018-06-27T15:03:39.684Z,99044.11
2018-06-27T15:06:07.796Z,99054.96
2018-06-27T15:08:36.068Z,99044.75
2018-06-27T15:11:04.144Z,99044.59
2018-06-27T15:13:33.424Z,99041.25
2018-06-27T15:16:03.396Z,99035.33
2018-06-27T15:18:31.472Z,99035.39
2018-06-27T15:20:59.668Z,99033.66
2018-06-27T15:23:27.876Z,99036.45
2018-06-27T15:25:55.888Z,99040.81
2018-06-27T15:28:24.029Z,99037.91
2018-06-27T15:30:52.267Z,99041.66
2018-06-27T15:33:20.359Z,99033.96
2018-06-27T15:35:48.472Z,99023.23
2018-06-27T15:38:17.242Z,99029.12
2018-06-27T15:40:45.688Z,99028.44
2018-06-27T15:43:13.836Z,99025.08
2018-06-27T15:45:43.165Z,99026.88
2018-06-27T15:48:11.528Z,99021.36
2018-06-27T15:50:39.628Z,99018.66
2018-06-27T15:53:07.738Z,99021.23
2018-06-27T15:55:35.826Z,99016.39
2018-06-27T15:58:03.984Z,99023.27
2018-06-27T16:00:32.064Z,99017.19
2018-06-27T16:03:00.152Z,99021.23
2018-06-27T16:05:28.240Z,99017.43
2018-06-27T16:07:56.414Z,99020.86
2018-06-27T16:10:24.780Z,99029.61
2018-06-27T16:12:53.150Z,99018.75
2018-06-27T16:15:21.224Z,99013.22
2018-06-27T16:17:49.308Z,99012.09
2018-06-27T16:20:17.369Z,99004.89
2018-06-27T16:22:45.500Z,99011.98
2018-06-27T16:25:13.566Z,99013.19
2018-06-27T16:27:41.719Z,99015.56
2018-06-27T16:30:09.832Z,99024.69
2018-06-27T16:32:37.893Z,99024.36
2018-06-27T16:35:06.007Z,99023.98
2018-06-27T16:37:34.146Z,99021.80
2018-06-27T16:40:02.225Z,99017.76
2018-06-27T16:42:30.943Z,99020.94
2018-06-27T16:44:59.994Z,99010.78
2018-06-27T16:47:28.062Z,99008.89
2018-06-27T16:49:56.192Z,99016.88
2018-06-27T16:52:24.600Z,99015.95
2018-06-27T16:54:52.775Z,99008.97
2018-06-27T16:57:20.749Z,99017.91
2018-06-27T16:59:48.913Z,99018.23
2018-06-27T17:02:17.963Z,99014.58
2018-06-27T17:04:46.037Z,99008.14
2018-06-27T17:07:14.130Z,99014.53
2018-06-27T17:09:42.292Z,99009.47
2018-06-27T17:12:10.376Z,99020.43
2018-06-27T17:14:38.470Z,99013.30
2018-06-27T17:17:06.685Z,99019.63
2018-06-27T17:19:34.777Z,99016.72
2018-06-27T17:22:02.852Z,99017.16
2018-06-27T17:24:30.968Z,99019.59
2018-06-27T17:26:59.046Z,99014.62
2018-06-27T17:29:27.388Z,99013.61
2018-06-27T17:31:55.607Z,99013.13
2018-06-27T17:34:23.773Z,99001.87
2018-06-27T17:36:52.290Z,99011.05
2018-06-27T17:39:20.448Z,99017.59
2018-06-27T17:41:48.500Z,99019.19
2018-06-27T17:44:16.785Z,99017.88
2018-06-27T17:46:44.852Z,99023.03
2018-06-27T17:49:13.986Z,99026.95
2018-06-27T17:51:42.057Z,99032.75
2018-06-27T17:54:10.143Z,99030.67
2018-06-27T17:56:38.694Z,99027.41
2018-06-27T17:59:06.988Z,99029.20
2018-06-27T18:01:35.179Z,99032.84
2018-06-27T18:04:04.452Z,99033.34
2018-06-27T18:06:32.591Z,99033.14
2018-06-27T18:09:00.682Z,99037.59
2018-06-27T18:11:28.828Z,99034.44
2018-06-27T18:13:56.916Z,99043.91
2018-06-27T18:16:25.057Z,99033.46
2018-06-27T18:18:54.253Z,99034.13
2018-06-27T18:21:22.374Z,99042.52
2018-06-27T18:23:52.044Z,99043.05
2018-06-27T18:26:20.750Z,99039.18
2018-06-27T18:28:48.916Z,99035.36
2018-06-27T18:31:18.260Z,99039.31
2018-06-27T18:33:46.555Z,99041.23
2018-06-27T18:36:14.673Z,99041.87
2018-06-27T18:38:45.419Z,99044.77
2018-06-27T18:41:13.535Z,99041.58
2018-06-27T18:43:42.216Z,99043.64
2018-06-27T18:46:10.296Z,99045.59
2018-06-27T18:48:38.363Z,99042.42
2018-06-27T18:51:06.481Z,99050.48
2018-06-27T18:53:34.643Z,99063.81
2018-06-27T18:56:02.760Z,99060.67
2018-06-27T18:58:30.857Z,99061.65
2018-06-27T19:00:59.003Z,99066.16
2018-06-27T19:03:27.264Z,99065.38
2018-06-27T19:05:56.711Z,99063.22
2018-06-27T19:08:24.815Z,99067.89
2018-06-27T19:10:53.102Z,99067.66
2018-06-27T19:13:21.232Z,99070.09
2018-06-27T19:15:49.328Z,99072.68
2018-06-27T19:18:17.422Z,99077.27
2018-06-27T19:20:45.556Z,99075.68
2018-06-27T19:23:14.192Z,99077.98
2018-06-27T19:25:42.325Z,99082.67
2018-06-27T19:28:10.461Z,99082.54
2018-06-27T19:30:38.553Z,99087.14
2018-06-27T19:33:06.645Z,99090.28
2018-06-27T19:35:34.748Z,99091.07
2018-06-27T19:38:02.861Z,99092.30
2018-06-27T19:40:30.944Z,99090.83
2018-06-27T19:42:59.045Z,99088.50
2018-06-27T19:45:27.148Z,99097.70
2018-06-27T19:47:55.224Z,99102.81
2018-06-27T19:50:23.300Z,99104.80
2018-06-27T19:52:51.524Z,99106.47
2018-06-27T19:55:20.062Z,99105.99
2018-06-27T19:57:48.260Z,99115.19
2018-06-27T20:00:16.330Z,99119.52
2018-06-27T20:02:44.508Z,99117.81
2018-06-27T20:05:13.032Z,99119.98
2018-06-27T20:07:42.426Z,99118.72
2018-06-27T20:10:10.711Z,99124.27
2018-06-27T20:12:39.576Z,99132.96
2018-06-27T20:15:07.947Z,99121.10
2018-06-27T20:17:36.037Z,99131.30
2018-06-27T20:20:04.111Z,99129.64
2018-06-27T20:22:32.228Z,99130.67
2018-06-27T20:25:00.359Z,99130.35
2018-06-27T20:27:28.807Z,99141.02
2018-06-27T20:29:57.166Z,99143.68
2018-06-27T20:32:25.276Z,99139.53
2018-06-27T20:34:53.361Z,99144.05
2018-06-27T20:37:21.555Z,99147.31
2018-06-27T20:39:51.146Z,99153.15
2018-06-27T20:42:19.881Z,99150.97
2018-06-27T20:44:48.160Z,99149.00
2018-06-27T20:47:18.070Z,99156.30
2018-06-27T20:49:46.120Z,99158.97
2018-06-27T20:52:14.958Z,99159.63
2018-06-27T20:54:43.511Z,99162.45
2018-06-27T20:57:11.599Z,99162.77
2018-06-27T20:59:39.752Z,99165.42
2018-06-27T21:02:08.857Z,99167.57
2018-06-27T21:04:37.129Z,99170.05
2018-06-27T21:07:05.683Z,99170.06
2018-06-27T21:09:33.946Z,99175.56
2018-06-27T21:12:03.684Z,99176.41
2018-06-27T21:14:31.862Z,99174.53
2018-06-27T21:17:00.036Z,99175.84
2018-06-27T21:19:28.229Z,99177.46
2018-06-27T21:21:56.301Z,99180.44
2018-06-27T21:24:30.289Z,99182.27
2018-06-27T21:26:58.388Z,99182.44
2018-06-27T21:29:26.475Z,99178.05
2018-06-27T21:31:55.444Z,99182.97
2018-06-27T21:34:23.865Z,99185.60
2018-06-27T21:36:51.985Z,99181.07
2018-06-27T21:39:20.441Z,99187.50
2018-06-27T21:41:49.258Z,99185.68
2018-06-27T21:44:17.569Z,99180.01
2018-06-27T21:46:45.685Z,99183.16
2018-06-27T21:49:13.805Z,99180.72
2018-06-27T21:51:41.974Z,99183.51
2018-06-27T21:54:10.063Z,99189.21
2018-06-27T21:56:38.221Z,99180.63
2018-06-27T22:02:37.844Z,99172.27
2018-06-27T22:05:06.122Z,99174.27
2018-06-27T22:07:34.874Z,99174.59
2018-06-27T22:10:03.377Z,99169.23
2018-06-27T22:12:31.843Z,99172.00
2018-06-27T22:14:59.941Z,99174.34
2018-06-27T22:17:28.093Z,99167.81
2018-06-27T22:19:56.200Z,99164.33
2018-06-27T22:22:24.281Z,99169.15
2018-06-27T22:24:52.408Z,99173.95
2018-06-27T22:27:20.483Z,99182.77
2018-06-27T22:29:48.600Z,99190.22
2018-06-27T22:32:16.741Z,99191.45
2018-06-27T22:34:44.873Z,99194.70
2018-06-27T22:37:12.948Z,99187.10
2018-06-27T22:39:41.035Z,99191.45
2018-06-27T22:42:09.213Z,99192.14
2018-06-27T22:44:37.295Z,99194.59
2018-06-27T22:47:05.632Z,99195.17
2018-06-27T22:49:33.766Z,99195.23
2018-06-27T22:52:01.828Z,99191.99
2018-06-27T22:54:30.043Z,99191.68
2018-06-27T22:56:58.123Z,99186.16
2018-06-27T22:59:26.245Z,99185.68
2018-06-27T23:01:54.720Z,99194.33
2018-06-27T23:04:23.012Z,99190.79
2018-06-27T23:06:51.586Z,99193.06
2018-06-27T23:09:19.886Z,99192.05
2018-06-27T23:11:47.964Z,99198.42
2018-06-27T23:14:16.026Z,99196.50
2018-06-27T23:16:44.444Z,99196.02
2018-06-27T23:19:12.536Z,99193.31
2018-06-27T23:21:40.677Z,99189.48
2018-06-27T23:24:09.004Z,99192.08
2018-06-27T23:26:37.197Z,99196.20
2018-06-27T23:29:05.866Z,99195.13
2018-06-27T23:31:34.040Z,99192.81
2018-06-27T23:34:03.200Z,99191.20
2018-06-27T23:36:31.437Z,99185.12
2018-06-27T23:38:59.659Z,99193.70
2018-06-27T23:41:27.742Z,99190.58
2018-06-27T23:43:55.895Z,99189.09
2018-06-27T23:46:24.018Z,99181.83
2018-06-27T23:48:52.115Z,99185.89
2018-06-27T23:51:20.339Z,99194.00
2018-06-27T23:53:48.739Z,99187.86
2018-06-27T23:56:16.907Z,99183.93
2018-06-27T23:58:45.292Z,99183.08
